createdAt,value
2023-05-15T00:01:51.038Z,15.21
2023-05-15T00:04:17.697Z,15.17
2023-05-15T00:06:44.382Z,15.15
2023-05-15T00:09:11.045Z,15.18
2023-05-15T00:11:37.629Z,15.21
2023-05-15T00:14:04.339Z,15.20
2023-05-15T00:16:30.932Z,15.20
2023-05-15T00:18:57.611Z,15.19
2023-05-15T00:21:24.366Z,15.16
2023-05-15T00:23:53.973Z,15.14
2023-05-15T00:26:20.775Z,15.11
2023-05-15T00:28:47.369Z,15.12
2023-05-15T00:31:14.923Z,15.10
2023-05-15T00:33:41.560Z,15.10
2023-05-15T00:36:09.780Z,15.10
2023-05-15T00:38:36.334Z,15.10
2023-05-15T00:41:06.215Z,15.10
2023-05-15T00:43:33.430Z,15.09
2023-05-15T00:46:01.069Z,15.07
2023-05-15T00:48:29.185Z,15.04
2023-05-15T00:50:59.005Z,15.03
2023-05-15T00:53:27.208Z,15.03
2023-05-15T00:55:57.918Z,15.05
2023-05-15T00:58:26.845Z,15.03
2023-05-15T01:00:53.898Z,15.02
2023-05-15T01:03:20.829Z,15.00
2023-05-15T01:05:47.487Z,14.99
2023-05-15T01:08:32.896Z,14.99
2023-05-15T01:11:00.266Z,14.95
2023-05-15T01:13:26.877Z,14.90
2023-05-15T01:15:55.801Z,14.87
2023-05-15T01:18:22.380Z,14.85
2023-05-15T01:21:10.354Z,14.82
2023-05-15T01:23:58.380Z,14.80
2023-05-15T01:26:58.145Z,14.79
2023-05-15T01:29:30.662Z,14.82
2023-05-15T01:32:02.789Z,14.85
2023-05-15T01:34:46.122Z,14.86
2023-05-15T01:37:17.476Z,14.84
2023-05-15T01:39:47.829Z,14.84
2023-05-15T01:42:17.925Z,14.85
2023-05-15T01:44:54.674Z,14.81
2023-05-15T01:47:38.392Z,14.81
2023-05-15T01:50:08.251Z,14.84
2023-05-15T01:52:40.727Z,14.86
2023-05-15T01:55:08.725Z,14.85
2023-05-15T01:57:36.469Z,14.81
2023-05-15T02:00:04.070Z,14.79
2023-05-15T02:02:42.256Z,14.75
2023-05-15T02:05:09.524Z,14.73
2023-05-15T02:07:36.285Z,14.72
2023-05-15T02:10:03.382Z,14.73
2023-05-15T02:12:31.627Z,14.76
2023-05-15T02:14:59.662Z,14.80
2023-05-15T02:17:34.754Z,14.82
2023-05-15T02:20:01.318Z,14.81
2023-05-15T02:22:27.842Z,14.78
2023-05-15T02:24:54.467Z,14.73
2023-05-15T02:27:27.039Z,14.69
2023-05-15T02:30:30.334Z,14.67
2023-05-15T02:33:17.960Z,14.63
2023-05-15T02:35:56.862Z,14.62
2023-05-15T02:38:30.083Z,14.63
2023-05-15T02:40:58.031Z,14.61
2023-05-15T02:43:26.201Z,14.58
2023-05-15T02:45:54.133Z,14.57
2023-05-15T02:48:21.762Z,14.56
2023-05-15T02:50:48.448Z,14.56
2023-05-15T02:53:16.111Z,14.55
2023-05-15T02:55:42.695Z,14.55
2023-05-15T02:58:09.668Z,14.54
2023-05-15T03:00:36.189Z,14.51
2023-05-15T03:03:02.771Z,14.50
2023-05-15T03:05:29.389Z,14.50
2023-05-15T03:07:57.352Z,14.52
2023-05-15T03:10:24.258Z,14.59
2023-05-15T03:12:50.792Z,14.60
2023-05-15T03:15:17.868Z,14.62
2023-05-15T03:17:44.788Z,14.61
2023-05-15T03:20:11.434Z,14.62
2023-05-15T03:22:38.046Z,14.68
2023-05-15T03:25:04.888Z,14.77
2023-05-15T03:27:31.465Z,14.79
2023-05-15T03:29:58.179Z,14.82
2023-05-15T03:32:24.842Z,14.86
2023-05-15T03:34:51.377Z,14.88
2023-05-15T03:37:17.997Z,14.88
2023-05-15T03:39:44.574Z,14.90
2023-05-15T03:42:11.388Z,14.93
2023-05-15T03:44:37.910Z,14.98
2023-05-15T03:47:04.715Z,14.99
2023-05-15T03:49:31.287Z,15.01
2023-05-15T03:51:57.896Z,15.09
2023-05-15T03:54:24.481Z,15.12
2023-05-15T03:56:52.905Z,15.17
2023-05-15T03:59:19.427Z,15.18
2023-05-15T04:02:02.954Z,15.17
2023-05-15T04:04:30.559Z,15.18
2023-05-15T04:06:57.236Z,15.26
2023-05-15T04:09:23.777Z,15.31
2023-05-15T04:11:50.298Z,15.38
2023-05-15T04:14:16.803Z,15.48
2023-05-15T04:16:43.475Z,15.55
2023-05-15T04:19:10.264Z,15.60
2023-05-15T04:21:36.807Z,15.66
2023-05-15T04:24:03.507Z,15.71
2023-05-15T04:26:31.625Z,15.73
2023-05-15T04:29:03.907Z,15.72
2023-05-15T04:31:31.847Z,15.70
2023-05-15T04:33:58.677Z,15.66
2023-05-15T04:36:25.418Z,15.68
2023-05-15T04:38:52.107Z,15.76
2023-05-15T04:41:18.649Z,15.76
2023-05-15T04:43:45.886Z,15.76
2023-05-15T04:46:12.754Z,15.80
2023-05-15T04:48:39.678Z,15.82
2023-05-15T04:51:07.477Z,15.82
2023-05-15T04:53:34.241Z,15.82
2023-05-15T04:56:04.078Z,15.84
2023-05-15T04:58:30.622Z,15.90
2023-05-15T05:00:57.170Z,15.97
2023-05-15T05:03:23.802Z,16.04
2023-05-15T05:05:50.326Z,16.07
2023-05-15T05:08:16.811Z,16.07
2023-05-15T05:10:43.349Z,16.08
2023-05-15T05:13:09.898Z,16.10
2023-05-15T05:15:37.135Z,16.14
2023-05-15T05:18:03.972Z,16.14
2023-05-15T05:20:30.645Z,16.20
2023-05-15T05:22:57.216Z,16.21
2023-05-15T05:25:24.056Z,16.19
2023-05-15T05:27:50.874Z,16.26
2023-05-15T05:30:17.564Z,16.31
2023-05-15T05:32:44.138Z,16.34
2023-05-15T05:35:10.843Z,16.42
2023-05-15T05:37:38.856Z,16.48
2023-05-15T05:40:08.804Z,16.50
2023-05-15T05:42:35.550Z,16.57
2023-05-15T05:45:02.123Z,16.58
2023-05-15T05:47:28.676Z,16.64
2023-05-15T05:49:55.369Z,16.67
2023-05-15T05:52:21.979Z,16.61
2023-05-15T05:54:48.696Z,16.61
2023-05-15T05:57:15.507Z,16.58
2023-05-15T05:59:42.169Z,16.48
2023-05-15T06:02:09.268Z,16.46
2023-05-15T06:04:36.045Z,16.41
2023-05-15T06:07:03.330Z,16.38
2023-05-15T06:09:29.941Z,16.30
2023-05-15T06:11:56.489Z,16.20
2023-05-15T06:14:23.309Z,16.09
2023-05-15T06:16:50.187Z,15.95
2023-05-15T06:19:16.948Z,15.84
2023-05-15T06:21:43.842Z,15.74
2023-05-15T06:24:10.522Z,15.63
2023-05-15T06:26:37.212Z,15.51
2023-05-15T06:29:03.719Z,15.41
2023-05-15T06:31:30.366Z,15.34
2023-05-15T06:33:56.889Z,15.31
2023-05-15T06:36:24.035Z,15.27
2023-05-15T06:38:50.583Z,15.23
2023-05-15T06:41:17.105Z,15.20
2023-05-15T06:43:43.660Z,15.15
2023-05-15T06:46:10.399Z,15.09
2023-05-15T06:48:37.278Z,15.02
2023-05-15T06:51:03.871Z,14.98
2023-05-15T06:53:30.704Z,14.93
2023-05-15T06:55:57.300Z,14.88
2023-05-15T06:58:24.297Z,14.87
2023-05-15T07:00:52.045Z,14.86
2023-05-15T07:03:19.517Z,14.84
2023-05-15T07:05:46.453Z,14.83
2023-05-15T07:08:12.983Z,14.79
2023-05-15T07:10:39.527Z,14.64
2023-05-15T07:13:06.063Z,14.47
2023-05-15T07:15:32.589Z,14.20
2023-05-15T07:17:59.243Z,14.02
2023-05-15T07:20:28.554Z,13.91
2023-05-15T07:22:57.142Z,13.82
2023-05-15T07:25:25.008Z,13.79
2023-05-15T07:27:52.078Z,13.74
2023-05-15T07:30:19.033Z,13.73
2023-05-15T07:32:48.745Z,13.74
2023-05-15T07:35:15.808Z,13.80
2023-05-15T07:37:42.559Z,13.86
2023-05-15T07:40:09.504Z,13.96
2023-05-15T07:42:36.159Z,14.05
2023-05-15T07:45:03.305Z,14.12
2023-05-15T07:47:30.058Z,14.21
2023-05-15T07:49:57.015Z,14.35
2023-05-15T07:52:23.709Z,14.46
2023-05-15T07:54:50.292Z,14.47
2023-05-15T07:57:16.995Z,14.44
2023-05-15T07:59:43.612Z,14.41
2023-05-15T08:02:10.391Z,14.44
2023-05-15T08:04:37.038Z,14.43
2023-05-15T08:07:03.809Z,14.56
2023-05-15T08:09:30.420Z,14.75
2023-05-15T08:11:57.528Z,14.93
2023-05-15T08:14:24.316Z,15.13
2023-05-15T08:16:51.727Z,15.32
2023-05-15T08:19:19.301Z,15.47
2023-05-15T08:21:46.393Z,15.53
2023-05-15T08:24:13.044Z,15.49
2023-05-15T08:26:39.809Z,15.40
2023-05-15T08:29:06.467Z,15.32
2023-05-15T08:31:33.250Z,15.30
2023-05-15T08:34:00.161Z,15.28
2023-05-15T08:36:26.996Z,15.28
2023-05-15T08:38:53.859Z,15.26
2023-05-15T08:41:39.984Z,15.19
2023-05-15T08:44:09.501Z,15.17
2023-05-15T08:46:36.632Z,15.25
2023-05-15T08:49:18.860Z,15.29
2023-05-15T08:51:45.833Z,15.21
2023-05-15T08:54:12.724Z,15.07
2023-05-15T08:56:39.585Z,15.04
2023-05-15T08:59:06.512Z,14.98
2023-05-15T09:01:33.963Z,14.87
2023-05-15T09:04:00.685Z,14.79
2023-05-15T09:06:28.309Z,14.68
2023-05-15T09:08:56.794Z,14.50
2023-05-15T09:11:26.405Z,14.27
2023-05-15T09:13:53.585Z,14.02
2023-05-15T09:16:21.600Z,13.87
2023-05-15T09:18:50.090Z,13.88
2023-05-15T09:21:22.823Z,13.89
2023-05-15T09:23:49.527Z,13.88
2023-05-15T09:26:16.696Z,13.98
2023-05-15T09:28:43.553Z,14.08
2023-05-15T09:31:11.203Z,14.19
2023-05-15T09:33:40.193Z,14.27
2023-05-15T09:36:07.951Z,14.31
2023-05-15T09:38:43.217Z,14.36
2023-05-15T09:41:09.884Z,14.33
2023-05-15T09:43:41.368Z,14.24
2023-05-15T09:46:08.716Z,14.13
2023-05-15T09:48:35.964Z,14.06
2023-05-15T09:51:02.998Z,14.05
2023-05-15T09:53:30.524Z,14.11
2023-05-15T09:55:57.181Z,14.28
2023-05-15T09:58:23.843Z,14.54
2023-05-15T10:00:50.472Z,14.68
2023-05-15T10:03:19.234Z,14.79
2023-05-15T10:05:46.066Z,14.90
2023-05-15T10:08:12.995Z,14.99
2023-05-15T10:10:39.800Z,15.00
2023-05-15T10:13:08.303Z,15.05
2023-05-15T10:15:35.377Z,15.11
2023-05-15T10:18:04.798Z,15.09
2023-05-15T10:20:35.378Z,15.17
2023-05-15T10:23:04.786Z,15.26
2023-05-15T10:25:55.852Z,15.27
2023-05-15T10:28:23.022Z,15.40
2023-05-15T10:30:49.746Z,15.51
2023-05-15T10:33:16.903Z,15.57
2023-05-15T10:35:44.402Z,15.58
2023-05-15T10:38:11.817Z,15.56
2023-05-15T10:40:41.046Z,15.47
2023-05-15T10:43:10.183Z,15.32
2023-05-15T10:45:37.083Z,15.15
2023-05-15T10:48:06.168Z,14.94
2023-05-15T10:50:33.252Z,14.76
2023-05-15T10:53:00.787Z,14.57
2023-05-15T10:55:27.414Z,14.46
2023-05-15T10:57:54.981Z,14.35
2023-05-15T11:00:26.937Z,14.21
2023-05-15T11:02:57.007Z,14.12
2023-05-15T11:05:24.414Z,14.03
2023-05-15T11:08:15.992Z,13.90
2023-05-15T11:10:42.744Z,13.64
2023-05-15T11:13:09.451Z,13.30
2023-05-15T11:15:43.300Z,13.06
2023-05-15T11:18:10.048Z,12.92
2023-05-15T11:20:41.734Z,12.83
2023-05-15T11:23:08.904Z,12.78
2023-05-15T11:25:36.769Z,12.73
2023-05-15T11:28:04.816Z,12.66
2023-05-15T11:30:39.672Z,12.57
2023-05-15T11:33:13.378Z,12.52
2023-05-15T11:35:49.453Z,12.47
2023-05-15T11:38:18.098Z,12.42
2023-05-15T11:40:47.630Z,12.43
2023-05-15T11:43:30.972Z,12.48
2023-05-15T11:46:04.358Z,12.48
2023-05-15T11:48:36.107Z,12.50
2023-05-15T11:51:03.139Z,12.47
2023-05-15T11:53:31.212Z,12.44
2023-05-15T11:55:59.723Z,12.40
2023-05-15T11:58:26.943Z,12.36
2023-05-15T12:00:54.243Z,12.36
2023-05-15T12:03:26.550Z,12.33
2023-05-15T12:05:59.524Z,12.33
2023-05-15T12:08:32.468Z,12.25
2023-05-15T12:11:00.713Z,12.19
2023-05-15T12:13:27.457Z,12.17
2023-05-15T12:15:56.214Z,12.14
2023-05-15T12:18:23.216Z,12.10
2023-05-15T12:20:53.036Z,12.09
2023-05-15T12:23:21.870Z,12.08
2023-05-15T12:25:50.286Z,12.03
2023-05-15T12:28:17.321Z,12.00
2023-05-15T12:30:44.420Z,11.99
2023-05-15T12:33:11.358Z,11.97
2023-05-15T12:35:43.740Z,11.97
2023-05-15T12:38:15.829Z,12.00
2023-05-15T12:40:44.094Z,12.02
2023-05-15T12:43:11.272Z,12.03
2023-05-15T12:45:38.856Z,12.05
2023-05-15T12:48:05.981Z,12.09
2023-05-15T12:50:34.249Z,12.10
2023-05-15T12:53:02.583Z,12.06
2023-05-15T12:55:34.004Z,12.06
2023-05-15T12:58:04.455Z,12.10
2023-05-15T13:00:34.454Z,12.12
2023-05-15T13:03:01.753Z,12.13
2023-05-15T13:05:32.146Z,12.14
2023-05-15T13:08:07.551Z,12.12
2023-05-15T13:10:37.176Z,12.11
2023-05-15T13:13:04.091Z,12.15
2023-05-15T13:15:39.707Z,12.16
2023-05-15T13:18:07.406Z,12.14
2023-05-15T13:20:35.506Z,12.14
2023-05-15T13:23:02.465Z,12.13
2023-05-15T13:25:32.007Z,12.13
2023-05-15T13:28:00.624Z,12.13
2023-05-15T13:30:28.532Z,12.14
2023-05-15T13:32:55.988Z,12.14
2023-05-15T13:35:23.586Z,12.14
2023-05-15T13:37:50.451Z,12.14
2023-05-15T13:40:17.150Z,12.14
2023-05-15T13:42:44.622Z,12.15
2023-05-15T13:45:15.930Z,12.15
2023-05-15T13:47:43.832Z,12.17
2023-05-15T13:50:12.761Z,12.19
2023-05-15T13:52:41.066Z,12.23
2023-05-15T13:55:09.807Z,12.29
2023-05-15T13:57:37.893Z,12.34
2023-05-15T14:00:13.331Z,12.37
2023-05-15T14:02:41.877Z,12.37
2023-05-15T14:05:13.738Z,12.41
2023-05-15T14:07:41.404Z,12.45
2023-05-15T14:10:08.647Z,12.47
2023-05-15T14:12:38.127Z,12.49
2023-05-15T14:15:05.217Z,12.54
2023-05-15T14:17:31.926Z,12.56
2023-05-15T14:19:58.681Z,12.56
2023-05-15T14:22:25.537Z,12.55
2023-05-15T14:24:53.222Z,12.55
2023-05-15T14:27:20.327Z,12.59
2023-05-15T14:29:48.878Z,12.65
2023-05-15T14:32:16.385Z,12.72
2023-05-15T14:34:43.304Z,12.77
2023-05-15T14:37:10.348Z,12.84
2023-05-15T14:39:37.242Z,12.91
2023-05-15T14:42:04.440Z,12.99
2023-05-15T14:44:31.158Z,13.04
2023-05-15T14:47:11.073Z,13.11
2023-05-15T14:49:38.047Z,13.17
2023-05-15T14:52:09.047Z,13.17
2023-05-15T14:54:36.435Z,13.17
2023-05-15T14:57:04.076Z,13.21
2023-05-15T14:59:31.034Z,13.30
2023-05-15T15:01:58.157Z,13.35
2023-05-15T15:04:26.619Z,13.41
2023-05-15T15:06:56.762Z,13.50
2023-05-15T15:09:24.041Z,13.53
2023-05-15T15:11:51.279Z,13.53
2023-05-15T15:14:17.960Z,13.59
2023-05-15T15:16:46.129Z,13.58
2023-05-15T15:19:13.964Z,13.56
2023-05-15T15:21:40.895Z,13.52
2023-05-15T15:24:07.668Z,13.47
2023-05-15T15:26:34.354Z,13.44
2023-05-15T15:29:01.203Z,13.46
2023-05-15T15:31:29.770Z,13.47
2023-05-15T15:33:57.697Z,13.44
2023-05-15T15:36:25.501Z,13.43
2023-05-15T15:38:52.366Z,13.44
2023-05-15T15:41:21.100Z,13.44
2023-05-15T15:43:47.974Z,13.46
2023-05-15T15:46:14.673Z,13.48
2023-05-15T15:48:41.475Z,13.54
2023-05-15T15:51:08.465Z,13.58
2023-05-15T15:53:35.304Z,13.61
2023-05-15T15:56:01.997Z,13.64
2023-05-15T15:58:29.901Z,13.65
2023-05-15T16:00:57.728Z,13.67
2023-05-15T16:03:24.890Z,13.70
2023-05-15T16:05:51.916Z,13.72
2023-05-15T16:08:18.764Z,13.76
2023-05-15T16:10:45.530Z,13.80
2023-05-15T16:13:12.330Z,13.88
2023-05-15T16:15:38.880Z,13.95
2023-05-15T16:18:05.644Z,13.99
2023-05-15T16:20:33.589Z,14.02
2023-05-15T16:23:01.756Z,14.07
2023-05-15T16:25:28.364Z,14.12
2023-05-15T16:27:55.009Z,14.16
2023-05-15T16:30:21.807Z,14.17
2023-05-15T16:32:49.054Z,14.18
2023-05-15T16:35:15.855Z,14.21
2023-05-15T16:37:42.477Z,14.22
2023-05-15T16:40:09.853Z,14.22
2023-05-15T16:42:38.033Z,14.22
2023-05-15T16:45:05.706Z,14.28
2023-05-15T16:47:32.532Z,14.29
2023-05-15T16:49:59.292Z,14.26
2023-05-15T16:52:25.955Z,14.23
2023-05-15T16:54:52.519Z,14.21
2023-05-15T16:57:19.124Z,14.16
2023-05-15T16:59:46.044Z,14.12
2023-05-15T17:02:12.672Z,14.07
2023-05-15T17:04:39.290Z,14.04
2023-05-15T17:07:06.039Z,14.03
2023-05-15T17:09:32.857Z,14.02
2023-05-15T17:12:00.706Z,14.00
2023-05-15T17:14:27.526Z,13.97
2023-05-15T17:16:56.587Z,13.95
2023-05-15T17:19:23.268Z,13.94
2023-05-15T17:21:49.917Z,13.93
2023-05-15T17:24:16.648Z,13.92
2023-05-15T17:26:43.279Z,13.91
2023-05-15T17:29:10.929Z,13.91
2023-05-15T17:31:38.670Z,13.88
2023-05-15T17:34:05.490Z,13.88
2023-05-15T17:36:33.716Z,13.87
2023-05-15T17:39:00.594Z,13.85
2023-05-15T17:41:27.198Z,13.85
2023-05-15T17:43:53.791Z,13.86
2023-05-15T17:46:20.659Z,13.86
2023-05-15T17:48:47.362Z,13.86
2023-05-15T17:51:13.991Z,13.86
2023-05-15T17:53:40.826Z,13.87
2023-05-15T17:56:08.128Z,13.86
2023-05-15T17:58:34.727Z,13.84
2023-05-15T18:01:01.530Z,13.82
2023-05-15T18:03:28.892Z,13.80
2023-05-15T18:05:58.015Z,13.76
2023-05-15T18:08:24.708Z,13.73
2023-05-15T18:10:51.783Z,13.70
2023-05-15T18:13:18.866Z,13.66
2023-05-15T18:15:45.822Z,13.63
2023-05-15T18:18:12.595Z,13.60
2023-05-15T18:20:39.409Z,13.57
2023-05-15T18:23:06.153Z,13.53
2023-05-15T18:25:36.785Z,13.52
2023-05-15T18:28:04.405Z,13.49
2023-05-15T18:30:31.248Z,13.46
2023-05-15T18:33:00.239Z,13.44
2023-05-15T18:35:27.170Z,13.43
2023-05-15T18:37:54.225Z,13.43
2023-05-15T18:40:21.511Z,13.42
2023-05-15T18:42:48.024Z,13.40
2023-05-15T18:45:16.154Z,13.39
2023-05-15T18:47:42.713Z,13.38
2023-05-15T18:50:09.672Z,13.37
2023-05-15T18:52:36.294Z,13.36
2023-05-15T18:55:03.234Z,13.36
2023-05-15T18:57:30.139Z,13.36
2023-05-15T18:59:56.797Z,13.36
2023-05-15T19:02:25.859Z,13.35
2023-05-15T19:04:52.896Z,13.35
2023-05-15T19:07:19.430Z,13.35
2023-05-15T19:09:45.968Z,13.34
2023-05-15T19:12:12.497Z,13.35
2023-05-15T19:14:39.096Z,13.36
2023-05-15T19:17:06.021Z,13.37
2023-05-15T19:19:33.677Z,13.37
2023-05-15T19:22:00.270Z,13.38
2023-05-15T19:24:27.198Z,13.40
2023-05-15T19:26:53.866Z,13.41
2023-05-15T19:29:20.567Z,13.43
2023-05-15T19:31:47.151Z,13.45
2023-05-15T19:34:14.111Z,13.47
2023-05-15T19:36:40.868Z,13.49
2023-05-15T19:39:07.506Z,13.51
2023-05-15T19:41:34.115Z,13.51
2023-05-15T19:44:00.980Z,13.51
2023-05-15T19:46:27.730Z,13.56
2023-05-15T19:48:54.424Z,13.62
2023-05-15T19:51:21.060Z,13.65
2023-05-15T19:53:47.607Z,13.66
2023-05-15T19:56:14.298Z,13.64
2023-05-15T19:58:41.112Z,13.60
2023-05-15T20:01:07.844Z,13.56
2023-05-15T20:03:34.722Z,13.54
2023-05-15T20:06:02.472Z,13.48
2023-05-15T20:08:29.828Z,13.43
2023-05-15T20:10:57.214Z,13.38
2023-05-15T20:13:24.334Z,13.33
2023-05-15T20:15:58.104Z,13.27
2023-05-15T20:18:28.695Z,13.21
2023-05-15T20:20:55.945Z,13.17
2023-05-15T20:23:22.605Z,13.13
2023-05-15T20:25:50.487Z,13.10
2023-05-15T20:28:17.853Z,13.08
2023-05-15T20:30:47.392Z,13.07
2023-05-15T20:33:14.290Z,13.06
2023-05-15T20:35:42.607Z,13.07
2023-05-15T20:38:10.535Z,13.07
2023-05-15T20:40:37.808Z,13.09
2023-05-15T20:43:04.761Z,13.07
2023-05-15T20:45:34.103Z,13.04
2023-05-15T20:48:01.211Z,13.00
2023-05-15T20:50:28.360Z,12.95
2023-05-15T20:52:55.730Z,12.89
2023-05-15T20:55:22.795Z,12.84
2023-05-15T20:57:50.338Z,12.79
2023-05-15T21:00:18.130Z,12.75
2023-05-15T21:02:46.578Z,12.71
2023-05-15T21:05:14.079Z,12.69
2023-05-15T21:07:41.155Z,12.67
2023-05-15T21:10:08.855Z,12.66
2023-05-15T21:12:35.632Z,12.66
2023-05-15T21:15:02.952Z,12.68
2023-05-15T21:17:30.155Z,12.68
2023-05-15T21:19:58.556Z,12.69
2023-05-15T21:22:25.315Z,12.70
2023-05-15T21:24:52.145Z,12.71
2023-05-15T21:27:19.240Z,12.72
2023-05-15T21:29:46.527Z,12.73
2023-05-15T21:32:13.190Z,12.73
2023-05-15T21:34:40.019Z,12.72
2023-05-15T21:37:06.933Z,12.69
2023-05-15T21:39:33.691Z,12.68
2023-05-15T21:42:00.260Z,12.66
2023-05-15T21:44:27.059Z,12.62
2023-05-15T21:46:53.804Z,12.58
2023-05-15T21:49:20.861Z,12.53
2023-05-15T21:51:47.547Z,12.48
2023-05-15T21:54:14.349Z,12.44
2023-05-15T21:56:41.231Z,12.42
2023-05-15T21:59:08.138Z,12.41
2023-05-15T22:01:36.185Z,12.42
2023-05-15T22:04:03.067Z,12.42
2023-05-15T22:06:29.765Z,12.43
2023-05-15T22:08:56.484Z,12.44
2023-05-15T22:11:23.514Z,12.45
2023-05-15T22:13:50.055Z,12.45
2023-05-15T22:16:17.045Z,12.42
2023-05-15T22:18:45.279Z,12.40
2023-05-15T22:21:11.960Z,12.41
2023-05-15T22:23:38.485Z,12.42
2023-05-15T22:26:05.012Z,12.42
2023-05-15T22:28:31.524Z,12.45
2023-05-15T22:30:58.047Z,12.46
2023-05-15T22:33:24.967Z,12.46
2023-05-15T22:35:52.737Z,12.45
2023-05-15T22:38:20.026Z,12.42
2023-05-15T22:40:52.839Z,12.38
2023-05-15T22:43:20.274Z,12.33
2023-05-15T22:45:46.865Z,12.28
2023-05-15T22:48:15.212Z,12.23
2023-05-15T22:50:41.813Z,12.19
2023-05-15T22:53:08.288Z,12.15
2023-05-15T22:55:35.107Z,12.11
2023-05-15T22:58:01.608Z,12.06
2023-05-15T23:00:28.334Z,12.02
2023-05-15T23:02:55.975Z,11.98
2023-05-15T23:05:23.517Z,11.95
2023-05-15T23:07:50.518Z,11.92
2023-05-15T23:10:17.093Z,11.90
2023-05-15T23:12:43.654Z,11.87
2023-05-15T23:15:10.654Z,11.85
2023-05-15T23:17:37.342Z,11.86
2023-05-15T23:20:06.754Z,11.88
2023-05-15T23:22:33.354Z,11.90
2023-05-15T23:24:59.890Z,11.94
2023-05-15T23:27:26.436Z,11.97
2023-05-15T23:29:53.528Z,11.99
2023-05-15T23:32:20.029Z,12.00
2023-05-15T23:34:46.722Z,12.00
2023-05-15T23:37:13.468Z,11.99
2023-05-15T23:39:40.047Z,11.97
2023-05-15T23:42:06.700Z,11.97
2023-05-15T23:44:33.231Z,11.98
2023-05-15T23:46:59.897Z,11.99
2023-05-15T23:49:26.497Z,11.98
2023-05-15T23:51:52.995Z,11.99
2023-05-15T23:54:19.510Z,12.02
2023-05-15T23:56:46.444Z,12.04
2023-05-15T23:59:13.744Z,12.02
